sensor_id;sensor_type;location;lat;lon;timestamp;temperature;humidity
44190;DHT22;29856;52.144;5.430;2023-06-05T00:00:42;13.40;99.90
44190;DHT22;29856;52.144;5.430;2023-06-05T00:03:08;13.40;99.90
44190;DHT22;29856;52.144;5.430;2023-06-05T00:05:33;13.40;99.90
44190;DHT22;29856;52.144;5.430;2023-06-05T00:07:59;13.40;99.90
44190;DHT22;29856;52.144;5.430;2023-06-05T00:10:24;13.30;99.90
44190;DHT22;29856;52.144;5.430;2023-06-05T00:12:50;13.30;99.90
44190;DHT22;29856;52.144;5.430;2023-06-05T00:15:15;13.20;99.90
44190;DHT22;29856;52.144;5.430;2023-06-05T00:17:41;13.20;99.90
44190;DHT22;29856;52.144;5.430;2023-06-05T00:20:07;13.10;99.90
44190;DHT22;29856;52.144;5.430;2023-06-05T00:22:33;13.20;99.90
44190;DHT22;29856;52.144;5.430;2023-06-05T00:24:58;13.10;99.90
44190;DHT22;29856;52.144;5.430;2023-06-05T00:27:23;13.10;99.90
44190;DHT22;29856;52.144;5.430;2023-06-05T00:29:49;13.10;99.90
44190;DHT22;29856;52.144;5.430;2023-06-05T00:32:15;13.10;99.90
44190;DHT22;29856;52.144;5.430;2023-06-05T00:34:40;13.00;99.90
44190;DHT22;29856;52.144;5.430;2023-06-05T00:37:06;13.00;99.90
44190;DHT22;29856;52.144;5.430;2023-06-05T00:39:31;12.90;99.90
44190;DHT22;29856;52.144;5.430;2023-06-05T00:41:57;12.90;99.90
44190;DHT22;29856;52.144;5.430;2023-06-05T00:44:22;12.80;99.90
44190;DHT22;29856;52.144;5.430;2023-06-05T00:46:49;12.80;99.90
44190;DHT22;29856;52.144;5.430;2023-06-05T00:49:16;12.80;99.90
44190;DHT22;29856;52.144;5.430;2023-06-05T00:51:42;12.70;99.90
44190;DHT22;29856;52.144;5.430;2023-06-05T00:54:09;12.70;99.90
44190;DHT22;29856;52.144;5.430;2023-06-05T00:56:34;12.70;99.90
44190;DHT22;29856;52.144;5.430;2023-06-05T00:59:00;12.70;99.90
44190;DHT22;29856;52.144;5.430;2023-06-05T01:01:26;12.70;99.90
44190;DHT22;29856;52.144;5.430;2023-06-05T01:03:51;12.80;99.90
44190;DHT22;29856;52.144;5.430;2023-06-05T01:06:17;12.80;99.90
44190;DHT22;29856;52.144;5.430;2023-06-05T01:08:45;12.70;99.90
44190;DHT22;29856;52.144;5.430;2023-06-05T01:11:18;12.70;99.90
44190;DHT22;29856;52.144;5.430;2023-06-05T01:13:53;12.70;99.90
44190;DHT22;29856;52.144;5.430;2023-06-05T01:16:19;12.60;99.90
44190;DHT22;29856;52.144;5.430;2023-06-05T01:18:46;12.50;99.90
44190;DHT22;29856;52.144;5.430;2023-06-05T01:21:12;12.50;99.90
44190;DHT22;29856;52.144;5.430;2023-06-05T01:23:38;12.50;99.90
44190;DHT22;29856;52.144;5.430;2023-06-05T01:26:06;12.40;99.90
44190;DHT22;29856;52.144;5.430;2023-06-05T01:28:32;12.40;99.90
44190;DHT22;29856;52.144;5.430;2023-06-05T01:31:02;12.50;99.90
44190;DHT22;29856;52.144;5.430;2023-06-05T01:33:29;12.40;99.90
44190;DHT22;29856;52.144;5.430;2023-06-05T01:35:56;12.40;99.90
44190;DHT22;29856;52.144;5.430;2023-06-05T01:38:22;12.40;99.90
44190;DHT22;29856;52.144;5.430;2023-06-05T01:40:50;12.40;99.90
44190;DHT22;29856;52.144;5.430;2023-06-05T01:43:16;12.30;99.90
44190;DHT22;29856;52.144;5.430;2023-06-05T01:45:43;12.30;99.90
44190;DHT22;29856;52.144;5.430;2023-06-05T01:48:09;12.20;99.90
44190;DHT22;29856;52.144;5.430;2023-06-05T01:50:35;12.20;99.90
44190;DHT22;29856;52.144;5.430;2023-06-05T01:53:00;12.20;99.90
44190;DHT22;29856;52.144;5.430;2023-06-05T01:55:26;12.20;99.90
44190;DHT22;29856;52.144;5.430;2023-06-05T01:57:51;12.10;99.90
44190;DHT22;29856;52.144;5.430;2023-06-05T02:00:17;12.10;99.90
44190;DHT22;29856;52.144;5.430;2023-06-05T02:02:43;12.10;99.90
44190;DHT22;29856;52.144;5.430;2023-06-05T02:05:09;12.00;99.90
44190;DHT22;29856;52.144;5.430;2023-06-05T02:07:37;12.00;99.90
44190;DHT22;29856;52.144;5.430;2023-06-05T02:10:04;12.00;99.90
44190;DHT22;29856;52.144;5.430;2023-06-05T02:12:29;12.00;99.90
44190;DHT22;29856;52.144;5.430;2023-06-05T02:14:55;11.90;99.90
44190;DHT22;29856;52.144;5.430;2023-06-05T02:17:20;12.00;99.90
44190;DHT22;29856;52.144;5.430;2023-06-05T02:19:46;12.00;99.90
44190;DHT22;29856;52.144;5.430;2023-06-05T02:22:11;11.90;99.90
44190;DHT22;29856;52.144;5.430;2023-06-05T02:24:37;11.80;99.90
44190;DHT22;29856;52.144;5.430;2023-06-05T02:27:02;11.80;99.90
44190;DHT22;29856;52.144;5.430;2023-06-05T02:29:28;11.90;99.90
44190;DHT22;29856;52.144;5.430;2023-06-05T02:31:53;11.90;99.90
44190;DHT22;29856;52.144;5.430;2023-06-05T02:34:19;11.90;99.90
44190;DHT22;29856;52.144;5.430;2023-06-05T02:36:44;11.80;99.90
44190;DHT22;29856;52.144;5.430;2023-06-05T02:39:09;11.90;99.90
44190;DHT22;29856;52.144;5.430;2023-06-05T02:41:35;11.80;99.90
44190;DHT22;29856;52.144;5.430;2023-06-05T02:44:00;11.80;99.90
44190;DHT22;29856;52.144;5.430;2023-06-05T02:46:26;11.70;99.90
44190;DHT22;29856;52.144;5.430;2023-06-05T02:48:51;11.60;99.90
44190;DHT22;29856;52.144;5.430;2023-06-05T02:51:17;11.60;99.90
44190;DHT22;29856;52.144;5.430;2023-06-05T02:53:42;11.60;99.90
44190;DHT22;29856;52.144;5.430;2023-06-05T02:56:08;11.60;99.90
44190;DHT22;29856;52.144;5.430;2023-06-05T02:58:33;11.60;99.90
44190;DHT22;29856;52.144;5.430;2023-06-05T03:01:02;11.60;99.90
44190;DHT22;29856;52.144;5.430;2023-06-05T03:03:31;11.60;99.90
44190;DHT22;29856;52.144;5.430;2023-06-05T03:06:01;11.60;99.90
44190;DHT22;29856;52.144;5.430;2023-06-05T03:08:26;11.60;99.90
44190;DHT22;29856;52.144;5.430;2023-06-05T03:10:52;11.50;99.90
44190;DHT22;29856;52.144;5.430;2023-06-05T03:13:17;11.40;99.90
44190;DHT22;29856;52.144;5.430;2023-06-05T03:15:43;11.40;99.90
44190;DHT22;29856;52.144;5.430;2023-06-05T03:18:08;11.40;99.90
44190;DHT22;29856;52.144;5.430;2023-06-05T03:20:34;11.40;99.90
44190;DHT22;29856;52.144;5.430;2023-06-05T03:22:59;11.40;99.90
44190;DHT22;29856;52.144;5.430;2023-06-05T03:25:25;11.40;99.90
44190;DHT22;29856;52.144;5.430;2023-06-05T03:27:50;11.30;99.90
44190;DHT22;29856;52.144;5.430;2023-06-05T03:30:16;11.30;99.90
44190;DHT22;29856;52.144;5.430;2023-06-05T03:32:41;11.40;99.90
44190;DHT22;29856;52.144;5.430;2023-06-05T03:35:07;11.40;99.90
44190;DHT22;29856;52.144;5.430;2023-06-05T03:37:32;11.40;99.90
44190;DHT22;29856;52.144;5.430;2023-06-05T03:39:58;11.30;99.90
44190;DHT22;29856;52.144;5.430;2023-06-05T03:42:23;11.30;99.90
44190;DHT22;29856;52.144;5.430;2023-06-05T03:44:49;11.30;99.90
44190;DHT22;29856;52.144;5.430;2023-06-05T03:47:14;11.30;99.90
44190;DHT22;29856;52.144;5.430;2023-06-05T03:49:40;11.30;99.90
44190;DHT22;29856;52.144;5.430;2023-06-05T03:52:05;11.30;99.90
44190;DHT22;29856;52.144;5.430;2023-06-05T03:54:31;11.30;99.90
44190;DHT22;29856;52.144;5.430;2023-06-05T03:56:56;11.30;99.90
44190;DHT22;29856;52.144;5.430;2023-06-05T03:59:22;11.30;99.90
44190;DHT22;29856;52.144;5.430;2023-06-05T04:01:48;11.30;99.90
44190;DHT22;29856;52.144;5.430;2023-06-05T04:04:13;11.30;99.90
44190;DHT22;29856;52.144;5.430;2023-06-05T04:06:39;11.30;99.90
44190;DHT22;29856;52.144;5.430;2023-06-05T04:09:05;11.30;99.90
44190;DHT22;29856;52.144;5.430;2023-06-05T04:11:30;11.40;99.90
44190;DHT22;29856;52.144;5.430;2023-06-05T04:13:56;11.30;99.90
44190;DHT22;29856;52.144;5.430;2023-06-05T04:16:21;11.40;99.90
44190;DHT22;29856;52.144;5.430;2023-06-05T04:18:47;11.40;99.90
44190;DHT22;29856;52.144;5.430;2023-06-05T04:21:12;11.40;99.90
44190;DHT22;29856;52.144;5.430;2023-06-05T04:23:38;11.40;99.90
44190;DHT22;29856;52.144;5.430;2023-06-05T04:26:03;11.40;99.90
44190;DHT22;29856;52.144;5.430;2023-06-05T04:28:29;11.40;99.90
44190;DHT22;29856;52.144;5.430;2023-06-05T04:30:54;11.30;99.90
44190;DHT22;29856;52.144;5.430;2023-06-05T04:33:20;11.40;99.90
44190;DHT22;29856;52.144;5.430;2023-06-05T04:35:45;11.40;99.90
44190;DHT22;29856;52.144;5.430;2023-06-05T04:38:11;11.40;99.90
44190;DHT22;29856;52.144;5.430;2023-06-05T04:40:36;11.50;99.90
44190;DHT22;29856;52.144;5.430;2023-06-05T04:43:02;11.50;99.90
44190;DHT22;29856;52.144;5.430;2023-06-05T04:45:27;11.50;99.90
44190;DHT22;29856;52.144;5.430;2023-06-05T04:47:52;11.60;99.90
44190;DHT22;29856;52.144;5.430;2023-06-05T04:50:23;11.60;99.90
44190;DHT22;29856;52.144;5.430;2023-06-05T04:52:48;11.80;99.90
44190;DHT22;29856;52.144;5.430;2023-06-05T04:55:14;11.80;99.90
44190;DHT22;29856;52.144;5.430;2023-06-05T04:57:39;11.90;99.90
44190;DHT22;29856;52.144;5.430;2023-06-05T05:00:05;11.90;99.90
44190;DHT22;29856;52.144;5.430;2023-06-05T05:02:31;12.00;99.90
44190;DHT22;29856;52.144;5.430;2023-06-05T05:04:56;12.10;99.90
44190;DHT22;29856;52.144;5.430;2023-06-05T05:07:22;12.20;99.90
44190;DHT22;29856;52.144;5.430;2023-06-05T05:09:48;12.20;99.90
44190;DHT22;29856;52.144;5.430;2023-06-05T05:12:13;12.30;99.90
44190;DHT22;29856;52.144;5.430;2023-06-05T05:14:39;12.30;99.90
44190;DHT22;29856;52.144;5.430;2023-06-05T05:17:04;12.40;99.90
44190;DHT22;29856;52.144;5.430;2023-06-05T05:19:30;12.50;99.90
44190;DHT22;29856;52.144;5.430;2023-06-05T05:21:55;12.60;99.90
44190;DHT22;29856;52.144;5.430;2023-06-05T05:24:21;12.70;99.90
44190;DHT22;29856;52.144;5.430;2023-06-05T05:26:47;12.80;99.90
44190;DHT22;29856;52.144;5.430;2023-06-05T05:29:12;12.90;99.90
44190;DHT22;29856;52.144;5.430;2023-06-05T05:31:37;12.90;99.90
44190;DHT22;29856;52.144;5.430;2023-06-05T05:34:03;13.00;99.90
44190;DHT22;29856;52.144;5.430;2023-06-05T05:36:28;13.10;99.90
44190;DHT22;29856;52.144;5.430;2023-06-05T05:38:54;13.30;99.90
44190;DHT22;29856;52.144;5.430;2023-06-05T05:41:20;13.20;99.90
44190;DHT22;29856;52.144;5.430;2023-06-05T05:43:45;13.10;99.90
44190;DHT22;29856;52.144;5.430;2023-06-05T05:46:11;13.20;99.90
44190;DHT22;29856;52.144;5.430;2023-06-05T05:48:37;13.10;99.90
44190;DHT22;29856;52.144;5.430;2023-06-05T05:51:02;13.20;99.90
44190;DHT22;29856;52.144;5.430;2023-06-05T05:53:28;13.30;99.90
44190;DHT22;29856;52.144;5.430;2023-06-05T05:55:53;13.30;99.90
44190;DHT22;29856;52.144;5.430;2023-06-05T05:58:19;13.40;99.90
44190;DHT22;29856;52.144;5.430;2023-06-05T06:00:44;13.50;99.90
44190;DHT22;29856;52.144;5.430;2023-06-05T06:03:10;13.40;99.90
44190;DHT22;29856;52.144;5.430;2023-06-05T06:05:35;13.20;99.90
44190;DHT22;29856;52.144;5.430;2023-06-05T06:08:01;13.30;99.90
44190;DHT22;29856;52.144;5.430;2023-06-05T06:10:27;13.50;99.90
44190;DHT22;29856;52.144;5.430;2023-06-05T06:12:52;13.50;99.90
44190;DHT22;29856;52.144;5.430;2023-06-05T06:15:18;13.80;99.90
44190;DHT22;29856;52.144;5.430;2023-06-05T06:17:43;13.80;99.90
44190;DHT22;29856;52.144;5.430;2023-06-05T06:20:09;14.00;99.90
44190;DHT22;29856;52.144;5.430;2023-06-05T06:22:34;14.00;99.90
44190;DHT22;29856;52.144;5.430;2023-06-05T06:25:00;14.10;99.90
44190;DHT22;29856;52.144;5.430;2023-06-05T06:27:25;14.10;99.90
44190;DHT22;29856;52.144;5.430;2023-06-05T06:29:51;14.30;99.90
44190;DHT22;29856;52.144;5.430;2023-06-05T06:32:17;14.20;99.90
44190;DHT22;29856;52.144;5.430;2023-06-05T06:34:43;14.30;99.90
44190;DHT22;29856;52.144;5.430;2023-06-05T06:37:09;14.40;99.90
44190;DHT22;29856;52.144;5.430;2023-06-05T06:39:34;14.40;99.90
44190;DHT22;29856;52.144;5.430;2023-06-05T06:42:00;14.40;99.90
44190;DHT22;29856;52.144;5.430;2023-06-05T06:44:25;14.50;99.90
44190;DHT22;29856;52.144;5.430;2023-06-05T06:46:50;14.50;99.90
44190;DHT22;29856;52.144;5.430;2023-06-05T06:49:16;14.30;99.90
44190;DHT22;29856;52.144;5.430;2023-06-05T06:51:41;14.60;99.90
44190;DHT22;29856;52.144;5.430;2023-06-05T06:54:07;14.80;99.90
44190;DHT22;29856;52.144;5.430;2023-06-05T06:56:32;14.90;99.90
44190;DHT22;29856;52.144;5.430;2023-06-05T06:58:58;14.90;99.90
44190;DHT22;29856;52.144;5.430;2023-06-05T07:01:23;15.20;99.90
44190;DHT22;29856;52.144;5.430;2023-06-05T07:03:48;15.30;99.90
44190;DHT22;29856;52.144;5.430;2023-06-05T07:06:14;15.30;99.90
44190;DHT22;29856;52.144;5.430;2023-06-05T07:08:39;15.30;99.90
44190;DHT22;29856;52.144;5.430;2023-06-05T07:11:05;15.40;99.90
44190;DHT22;29856;52.144;5.430;2023-06-05T07:13:30;15.20;99.90
44190;DHT22;29856;52.144;5.430;2023-06-05T07:15:56;15.20;99.90
44190;DHT22;29856;52.144;5.430;2023-06-05T07:18:21;15.30;99.90
44190;DHT22;29856;52.144;5.430;2023-06-05T07:20:47;15.50;99.90
44190;DHT22;29856;52.144;5.430;2023-06-05T07:23:14;15.50;99.90
44190;DHT22;29856;52.144;5.430;2023-06-05T07:25:39;15.60;99.90
44190;DHT22;29856;52.144;5.430;2023-06-05T07:28:09;15.10;99.90
44190;DHT22;29856;52.144;5.430;2023-06-05T07:30:35;15.20;99.90
44190;DHT22;29856;52.144;5.430;2023-06-05T07:33:00;15.30;99.90
44190;DHT22;29856;52.144;5.430;2023-06-05T07:35:26;15.50;99.90
44190;DHT22;29856;52.144;5.430;2023-06-05T07:37:51;15.60;99.90
44190;DHT22;29856;52.144;5.430;2023-06-05T07:40:16;15.60;99.90
44190;DHT22;29856;52.144;5.430;2023-06-05T07:42:42;15.70;99.90
44190;DHT22;29856;52.144;5.430;2023-06-05T07:45:08;15.90;99.90
44190;DHT22;29856;52.144;5.430;2023-06-05T07:47:33;16.00;99.90
44190;DHT22;29856;52.144;5.430;2023-06-05T07:50:00;16.00;99.90
44190;DHT22;29856;52.144;5.430;2023-06-05T07:52:26;16.00;99.90
44190;DHT22;29856;52.144;5.430;2023-06-05T07:54:52;16.10;99.90
44190;DHT22;29856;52.144;5.430;2023-06-05T07:57:18;16.10;99.90
44190;DHT22;29856;52.144;5.430;2023-06-05T07:59:43;15.90;99.90
44190;DHT22;29856;52.144;5.430;2023-06-05T08:02:09;16.10;99.90
44190;DHT22;29856;52.144;5.430;2023-06-05T08:04:34;16.30;99.90
44190;DHT22;29856;52.144;5.430;2023-06-05T08:07:00;16.20;99.90
44190;DHT22;29856;52.144;5.430;2023-06-05T08:09:25;16.40;99.90
44190;DHT22;29856;52.144;5.430;2023-06-05T08:11:51;16.30;99.90
44190;DHT22;29856;52.144;5.430;2023-06-05T08:14:16;16.40;99.90
44190;DHT22;29856;52.144;5.430;2023-06-05T08:16:42;16.50;99.90
44190;DHT22;29856;52.144;5.430;2023-06-05T08:19:08;16.60;99.90
44190;DHT22;29856;52.144;5.430;2023-06-05T08:21:34;16.50;99.90
44190;DHT22;29856;52.144;5.430;2023-06-05T08:23:59;16.70;99.90
44190;DHT22;29856;52.144;5.430;2023-06-05T08:26:25;16.80;99.90
44190;DHT22;29856;52.144;5.430;2023-06-05T08:28:51;17.00;99.90
44190;DHT22;29856;52.144;5.430;2023-06-05T08:31:16;16.80;99.90
44190;DHT22;29856;52.144;5.430;2023-06-05T08:33:42;16.70;99.90
44190;DHT22;29856;52.144;5.430;2023-06-05T08:36:08;16.70;99.90
44190;DHT22;29856;52.144;5.430;2023-06-05T08:38:34;16.90;99.90
44190;DHT22;29856;52.144;5.430;2023-06-05T08:41:07;16.80;99.90
44190;DHT22;29856;52.144;5.430;2023-06-05T08:43:32;16.90;99.90
44190;DHT22;29856;52.144;5.430;2023-06-05T08:46:00;17.00;99.90
44190;DHT22;29856;52.144;5.430;2023-06-05T08:48:26;17.10;99.90
44190;DHT22;29856;52.144;5.430;2023-06-05T08:50:52;17.20;99.90
44190;DHT22;29856;52.144;5.430;2023-06-05T08:53:18;17.10;99.90
44190;DHT22;29856;52.144;5.430;2023-06-05T08:55:51;17.20;99.90
44190;DHT22;29856;52.144;5.430;2023-06-05T08:58:18;17.50;99.90
44190;DHT22;29856;52.144;5.430;2023-06-05T09:00:44;17.80;99.90
44190;DHT22;29856;52.144;5.430;2023-06-05T09:03:11;17.60;99.90
44190;DHT22;29856;52.144;5.430;2023-06-05T09:05:36;17.60;99.90
44190;DHT22;29856;52.144;5.430;2023-06-05T09:08:02;17.80;99.90
44190;DHT22;29856;52.144;5.430;2023-06-05T09:10:28;18.00;99.90
44190;DHT22;29856;52.144;5.430;2023-06-05T09:13:01;18.10;99.90
44190;DHT22;29856;52.144;5.430;2023-06-05T09:15:31;17.80;99.90
44190;DHT22;29856;52.144;5.430;2023-06-05T09:18:11;17.80;99.90
44190;DHT22;29856;52.144;5.430;2023-06-05T09:20:38;18.10;99.90
44190;DHT22;29856;52.144;5.430;2023-06-05T09:23:24;18.10;99.90
44190;DHT22;29856;52.144;5.430;2023-06-05T09:25:50;18.40;99.90
44190;DHT22;29856;52.144;5.430;2023-06-05T09:28:16;18.20;99.90
44190;DHT22;29856;52.144;5.430;2023-06-05T09:31:04;18.40;99.90
44190;DHT22;29856;52.144;5.430;2023-06-05T09:33:31;18.50;99.90
44190;DHT22;29856;52.144;5.430;2023-06-05T09:36:11;18.40;99.90
44190;DHT22;29856;52.144;5.430;2023-06-05T09:38:39;18.80;99.90
44190;DHT22;29856;52.144;5.430;2023-06-05T09:41:05;19.00;99.90
44190;DHT22;29856;52.144;5.430;2023-06-05T09:43:30;19.10;99.90
44190;DHT22;29856;52.144;5.430;2023-06-05T09:45:56;19.00;99.90
44190;DHT22;29856;52.144;5.430;2023-06-05T09:48:21;19.20;99.90
44190;DHT22;29856;52.144;5.430;2023-06-05T09:50:47;19.30;99.90
44190;DHT22;29856;52.144;5.430;2023-06-05T09:53:15;19.30;99.90
44190;DHT22;29856;52.144;5.430;2023-06-05T09:55:40;19.40;99.90
44190;DHT22;29856;52.144;5.430;2023-06-05T09:58:07;19.50;99.90
44190;DHT22;29856;52.144;5.430;2023-06-05T10:00:38;19.70;99.90
44190;DHT22;29856;52.144;5.430;2023-06-05T10:03:08;19.40;99.90
44190;DHT22;29856;52.144;5.430;2023-06-05T10:05:37;19.70;99.90
44190;DHT22;29856;52.144;5.430;2023-06-05T10:08:04;19.70;99.90
44190;DHT22;29856;52.144;5.430;2023-06-05T10:10:29;19.90;99.90
44190;DHT22;29856;52.144;5.430;2023-06-05T10:12:56;19.80;99.90
44190;DHT22;29856;52.144;5.430;2023-06-05T10:15:23;19.70;99.90
44190;DHT22;29856;52.144;5.430;2023-06-05T10:17:49;19.80;99.90
44190;DHT22;29856;52.144;5.430;2023-06-05T10:20:15;19.80;99.90
44190;DHT22;29856;52.144;5.430;2023-06-05T10:22:41;19.90;99.90
44190;DHT22;29856;52.144;5.430;2023-06-05T10:25:09;20.10;99.90
44190;DHT22;29856;52.144;5.430;2023-06-05T10:27:54;20.10;99.90
44190;DHT22;29856;52.144;5.430;2023-06-05T10:33:45;20.40;99.90
44190;DHT22;29856;52.144;5.430;2023-06-05T10:39:03;20.40;99.90
44190;DHT22;29856;52.144;5.430;2023-06-05T10:41:28;20.40;99.90
44190;DHT22;29856;52.144;5.430;2023-06-05T10:43:57;20.40;99.90
44190;DHT22;29856;52.144;5.430;2023-06-05T10:46:30;20.70;99.90
44190;DHT22;29856;52.144;5.430;2023-06-05T10:49:12;20.50;99.90
44190;DHT22;29856;52.144;5.430;2023-06-05T10:51:52;20.80;99.90
44190;DHT22;29856;52.144;5.430;2023-06-05T10:56:53;20.80;99.90
44190;DHT22;29856;52.144;5.430;2023-06-05T10:59:20;20.80;99.90
44190;DHT22;29856;52.144;5.430;2023-06-05T11:07:19;20.90;99.90
44190;DHT22;29856;52.144;5.430;2023-06-05T11:10:08;21.10;99.90
44190;DHT22;29856;52.144;5.430;2023-06-05T11:15:07;21.30;99.90
44190;DHT22;29856;52.144;5.430;2023-06-05T11:17:35;21.30;99.90
44190;DHT22;29856;52.144;5.430;2023-06-05T11:20:02;21.30;99.90
44190;DHT22;29856;52.144;5.430;2023-06-05T11:22:27;21.30;99.90
44190;DHT22;29856;52.144;5.430;2023-06-05T11:27:43;21.50;99.90
44190;DHT22;29856;52.144;5.430;2023-06-05T11:30:11;21.70;99.90
44190;DHT22;29856;52.144;5.430;2023-06-05T11:32:37;21.70;99.90
44190;DHT22;29856;52.144;5.430;2023-06-05T11:35:04;21.90;99.90
44190;DHT22;29856;52.144;5.430;2023-06-05T11:37:30;21.80;99.90
44190;DHT22;29856;52.144;5.430;2023-06-05T11:39:55;22.00;99.90
44190;DHT22;29856;52.144;5.430;2023-06-05T11:42:22;22.10;99.90
44190;DHT22;29856;52.144;5.430;2023-06-05T11:44:47;22.20;99.90
44190;DHT22;29856;52.144;5.430;2023-06-05T11:47:23;22.40;99.90
44190;DHT22;29856;52.144;5.430;2023-06-05T11:49:52;22.10;99.90
44190;DHT22;29856;52.144;5.430;2023-06-05T11:52:18;22.20;99.90
44190;DHT22;29856;52.144;5.430;2023-06-05T11:54:44;22.10;99.90
44190;DHT22;29856;52.144;5.430;2023-06-05T11:57:10;21.80;99.90
44190;DHT22;29856;52.144;5.430;2023-06-05T11:59:36;21.90;99.90
44190;DHT22;29856;52.144;5.430;2023-06-05T12:02:02;22.30;99.90
44190;DHT22;29856;52.144;5.430;2023-06-05T12:04:28;22.10;99.90
44190;DHT22;29856;52.144;5.430;2023-06-05T12:06:54;22.10;99.90
44190;DHT22;29856;52.144;5.430;2023-06-05T12:09:19;22.30;99.90
44190;DHT22;29856;52.144;5.430;2023-06-05T12:11:45;22.20;99.90
44190;DHT22;29856;52.144;5.430;2023-06-05T12:14:12;21.80;99.90
44190;DHT22;29856;52.144;5.430;2023-06-05T12:16:39;22.00;99.90
44190;DHT22;29856;52.144;5.430;2023-06-05T12:21:38;22.10;99.90
44190;DHT22;29856;52.144;5.430;2023-06-05T12:24:04;22.30;99.90
44190;DHT22;29856;52.144;5.430;2023-06-05T12:26:50;22.40;99.90
44190;DHT22;29856;52.144;5.430;2023-06-05T12:29:16;22.30;99.90
44190;DHT22;29856;52.144;5.430;2023-06-05T12:31:41;22.60;99.90
44190;DHT22;29856;52.144;5.430;2023-06-05T12:34:06;22.70;99.90
44190;DHT22;29856;52.144;5.430;2023-06-05T12:36:39;22.20;99.90
44190;DHT22;29856;52.144;5.430;2023-06-05T12:39:05;22.50;99.90
44190;DHT22;29856;52.144;5.430;2023-06-05T12:41:31;22.30;99.90
44190;DHT22;29856;52.144;5.430;2023-06-05T12:44:00;22.40;99.90
44190;DHT22;29856;52.144;5.430;2023-06-05T12:46:26;22.40;99.90
44190;DHT22;29856;52.144;5.430;2023-06-05T12:48:51;22.10;99.90
44190;DHT22;29856;52.144;5.430;2023-06-05T12:51:17;22.50;99.90
44190;DHT22;29856;52.144;5.430;2023-06-05T12:53:42;22.00;99.90
44190;DHT22;29856;52.144;5.430;2023-06-05T12:56:08;22.40;99.90
44190;DHT22;29856;52.144;5.430;2023-06-05T12:58:33;22.20;99.90
44190;DHT22;29856;52.144;5.430;2023-06-05T13:00:58;22.40;99.90
44190;DHT22;29856;52.144;5.430;2023-06-05T13:03:24;22.30;99.90
44190;DHT22;29856;52.144;5.430;2023-06-05T13:05:50;22.30;99.90
44190;DHT22;29856;52.144;5.430;2023-06-05T13:08:15;22.60;99.90
44190;DHT22;29856;52.144;5.430;2023-06-05T13:10:41;22.60;99.90
44190;DHT22;29856;52.144;5.430;2023-06-05T13:13:06;22.50;99.90
44190;DHT22;29856;52.144;5.430;2023-06-05T13:15:32;22.40;99.90
44190;DHT22;29856;52.144;5.430;2023-06-05T13:17:57;21.90;99.90
44190;DHT22;29856;52.144;5.430;2023-06-05T13:20:35;22.30;99.90
44190;DHT22;29856;52.144;5.430;2023-06-05T13:23:00;22.10;99.90
44190;DHT22;29856;52.144;5.430;2023-06-05T13:25:26;22.30;99.90
44190;DHT22;29856;52.144;5.430;2023-06-05T13:27:51;22.20;99.90
44190;DHT22;29856;52.144;5.430;2023-06-05T13:30:17;22.00;99.90
44190;DHT22;29856;52.144;5.430;2023-06-05T13:32:42;22.00;99.90
44190;DHT22;29856;52.144;5.430;2023-06-05T13:35:08;22.10;99.90
44190;DHT22;29856;52.144;5.430;2023-06-05T13:37:33;22.00;99.90
44190;DHT22;29856;52.144;5.430;2023-06-05T13:39:59;22.30;99.90
44190;DHT22;29856;52.144;5.430;2023-06-05T13:42:24;22.40;99.90
44190;DHT22;29856;52.144;5.430;2023-06-05T13:44:50;22.20;99.90
44190;DHT22;29856;52.144;5.430;2023-06-05T13:47:15;22.70;99.90
44190;DHT22;29856;52.144;5.430;2023-06-05T13:49:41;22.30;99.90
44190;DHT22;29856;52.144;5.430;2023-06-05T13:52:06;22.60;99.90
44190;DHT22;29856;52.144;5.430;2023-06-05T13:54:32;22.50;99.90
44190;DHT22;29856;52.144;5.430;2023-06-05T13:56:57;22.40;99.90
44190;DHT22;29856;52.144;5.430;2023-06-05T13:59:22;22.30;99.90
44190;DHT22;29856;52.144;5.430;2023-06-05T14:01:48;22.10;99.90
44190;DHT22;29856;52.144;5.430;2023-06-05T14:04:13;22.50;99.90
44190;DHT22;29856;52.144;5.430;2023-06-05T14:06:39;22.60;99.90
44190;DHT22;29856;52.144;5.430;2023-06-05T14:09:05;21.90;99.90
44190;DHT22;29856;52.144;5.430;2023-06-05T14:11:30;22.00;99.90
44190;DHT22;29856;52.144;5.430;2023-06-05T14:13:56;22.30;99.90
44190;DHT22;29856;52.144;5.430;2023-06-05T14:16:22;22.20;99.90
44190;DHT22;29856;52.144;5.430;2023-06-05T14:18:47;22.20;99.90
44190;DHT22;29856;52.144;5.430;2023-06-05T14:21:13;22.50;99.90
44190;DHT22;29856;52.144;5.430;2023-06-05T14:23:38;22.30;99.90
44190;DHT22;29856;52.144;5.430;2023-06-05T14:26:04;22.00;99.90
44190;DHT22;29856;52.144;5.430;2023-06-05T14:28:30;21.90;99.90
44190;DHT22;29856;52.144;5.430;2023-06-05T14:30:55;22.10;99.90
44190;DHT22;29856;52.144;5.430;2023-06-05T14:33:20;22.50;99.90
44190;DHT22;29856;52.144;5.430;2023-06-05T14:35:46;22.60;99.90
44190;DHT22;29856;52.144;5.430;2023-06-05T14:38:11;22.10;99.90
44190;DHT22;29856;52.144;5.430;2023-06-05T14:40:37;22.50;99.90
44190;DHT22;29856;52.144;5.430;2023-06-05T14:43:02;22.90;99.90
44190;DHT22;29856;52.144;5.430;2023-06-05T14:45:28;22.60;99.90
44190;DHT22;29856;52.144;5.430;2023-06-05T14:47:53;22.20;99.90
44190;DHT22;29856;52.144;5.430;2023-06-05T14:50:18;21.70;99.90
44190;DHT22;29856;52.144;5.430;2023-06-05T14:52:44;22.10;99.90
44190;DHT22;29856;52.144;5.430;2023-06-05T14:55:10;22.00;99.90
44190;DHT22;29856;52.144;5.430;2023-06-05T14:57:36;22.00;99.90
44190;DHT22;29856;52.144;5.430;2023-06-05T15:00:05;21.40;99.90
44190;DHT22;29856;52.144;5.430;2023-06-05T15:02:31;21.30;99.90
44190;DHT22;29856;52.144;5.430;2023-06-05T15:04:56;21.60;99.90
44190;DHT22;29856;52.144;5.430;2023-06-05T15:07:22;21.90;99.90
44190;DHT22;29856;52.144;5.430;2023-06-05T15:09:48;22.00;99.90
44190;DHT22;29856;52.144;5.430;2023-06-05T15:12:14;22.20;99.90
44190;DHT22;29856;52.144;5.430;2023-06-05T15:14:39;22.20;99.90
44190;DHT22;29856;52.144;5.430;2023-06-05T15:17:05;21.90;99.90
44190;DHT22;29856;52.144;5.430;2023-06-05T15:19:31;22.10;99.90
44190;DHT22;29856;52.144;5.430;2023-06-05T15:21:56;22.10;99.90
44190;DHT22;29856;52.144;5.430;2023-06-05T15:24:21;22.00;99.90
44190;DHT22;29856;52.144;5.430;2023-06-05T15:26:47;21.50;99.90
44190;DHT22;29856;52.144;5.430;2023-06-05T15:29:12;21.90;99.90
44190;DHT22;29856;52.144;5.430;2023-06-05T15:31:38;22.10;99.90
44190;DHT22;29856;52.144;5.430;2023-06-05T15:34:03;21.70;99.90
44190;DHT22;29856;52.144;5.430;2023-06-05T15:36:29;21.90;99.90
44190;DHT22;29856;52.144;5.430;2023-06-05T15:38:54;21.70;99.90
44190;DHT22;29856;52.144;5.430;2023-06-05T15:41:21;22.00;99.90
44190;DHT22;29856;52.144;5.430;2023-06-05T15:43:47;21.00;99.90
44190;DHT22;29856;52.144;5.430;2023-06-05T15:46:12;20.80;99.90